^^
Saratoga-Weather Station Historical Data
Daily Summary for February 18, 2021 Units:  Metric    English   Both
Daily Weekly Monthly Yearly Custom
  High: Low: Average:
Temperature: 5.7 °C 0.6 °C 2 °C
Dew Point: 4.7 °C 0 °C 1.4 °C
Humidity: 97% 93% 96%
Wind Speed: 3.2km/h 0km/h 0.2km/h
Wind Gust: 6.4km/h - -
Wind- - ENE
Pressure: 1018.0 hPa 1012.5 hPa -
Precipitation: 0.2 mm    
Historical Graphs
 
 
Tabular Data for February 18, 2021
Time Temperature Dew Point Pressure Wind Wind Speed Wind Gust Humidity Rainfall Rate (Hourly) solar
00:04 3.1 °C 2.2 °C 1018.0 hPa Calm     94% 0.0 mm 0 W/m2
00:09 3 °C 2.1 °C 1018.0 hPa Calm     94% 0.0 mm 0 W/m2
00:14 2.9 °C 2 °C 1018.0 hPa Calm     94% 0.0 mm 0 W/m2
00:19 2.9 °C 2 °C 1018.0 hPa Calm   1.6 km/h 94% 0.0 mm 0 W/m2
00:24 2.9 °C 2.2 °C 1018.0 hPa Calm     95% 0.0 mm 0 W/m2
00:29 2.9 °C 2.2 °C 1018.0 hPa Calm     95% 0.0 mm 0 W/m2
00:34 2.8 °C 2.1 °C 1018.0 hPa Calm     95% 0.0 mm 0 W/m2
00:39 2.7 °C 1.8 °C 1018.0 hPa Calm     94% 0.0 mm 0 W/m2
00:44 2.7 °C 1.8 °C 1017.6 hPa Calm     94% 0.0 mm 0 W/m2
00:49 2.6 °C 1.9 °C 1017.6 hPa Calm     95% 0.0 mm 0 W/m2
00:54 2.6 °C 1.9 °C 1017.6 hPa Calm     95% 0.0 mm 0 W/m2
00:59 2.7 °C 2 °C 1017.6 hPa Calm     95% 0.0 mm 0 W/m2
01:04 2.7 °C 2 °C 1017.6 hPa Calm     95% 0.0 mm 0 W/m2
01:09 2.6 °C 1.9 °C 1017.6 hPa Calm     95% 0.0 mm 0 W/m2
01:14 2.6 °C 1.9 °C 1017.6 hPa Calm     95% 0.0 mm 0 W/m2
01:19 2.5 °C 1.8 °C 1017.3 hPa Calm     95% 0.0 mm 0 W/m2
01:24 2.4 °C 1.7 °C 1017.3 hPa Calm     95% 0.0 mm 0 W/m2
01:29 2.4 °C 1.7 °C 1017.3 hPa Calm     95% 0.0 mm 0 W/m2
01:34 2.4 °C 1.7 °C 1017.3 hPa Calm     95% 0.0 mm 0 W/m2
01:40 2.3 °C 1.6 °C 1017.3 hPa Calm     95% 0.0 mm 0 W/m2
01:45 2.2 °C 1.5 °C 1016.9 hPa Calm     95% 0.0 mm 0 W/m2
01:50 2.2 °C 1.5 °C 1016.9 hPa Calm     95% 0.0 mm 0 W/m2
01:55 2.2 °C 1.5 °C 1016.9 hPa Calm     95% 0.0 mm 0 W/m2
02:00 2.1 °C 1.4 °C 1016.9 hPa Calm     95% 0.0 mm 0 W/m2
02:05 2.1 °C 1.4 °C 1016.9 hPa Calm     95% 0.0 mm 0 W/m2
02:10 2 °C 1.3 °C 1016.9 hPa Calm     95% 0.0 mm 0 W/m2
02:15 2.1 °C 1.4 °C 1016.9 hPa Calm     95% 0.0 mm 0 W/m2
02:20 2.1 °C 1.4 °C 1016.9 hPa Calm     95% 0.0 mm 0 W/m2
02:25 2 °C 1.3 °C 1016.9 hPa Calm     95% 0.0 mm 0 W/m2
02:30 2.1 °C 1.4 °C 1016.9 hPa Calm     95% 0.0 mm 0 W/m2
02:35 2.1 °C 1.5 °C 1016.9 hPa Calm     96% 0.0 mm 0 W/m2
02:40 2 °C 1.3 °C 1016.9 hPa Calm     95% 0.0 mm 0 W/m2
02:45 1.9 °C 1.2 °C 1016.9 hPa Calm     95% 0.0 mm 0 W/m2
02:50 1.9 °C 1.3 °C 1016.9 hPa Calm     96% 0.0 mm 0 W/m2
02:55 1.8 °C 1.2 °C 1016.6 hPa Calm     96% 0.0 mm 0 W/m2
03:00 1.8 °C 1.1 °C 1016.6 hPa Calm     95% 0.0 mm 0 W/m2
03:05 1.7 °C 1 °C 1016.6 hPa Calm     95% 0.0 mm 0 W/m2
03:10 1.7 °C 1 °C 1016.6 hPa Calm     95% 0.0 mm 0 W/m2
03:15 1.6 °C 0.9 °C 1016.6 hPa Calm     95% 0.0 mm 0 W/m2
03:20 1.5 °C 0.8 °C 1016.3 hPa Calm     95% 0.0 mm 0 W/m2
03:25 1.4 °C 0.7 °C 1016.3 hPa Calm     95% 0.0 mm 0 W/m2
03:30 1.3 °C 0.6 °C 1016.3 hPa Calm     95% 0.0 mm 0 W/m2
03:35 1.3 °C 0.6 °C 1016.3 hPa Calm     95% 0.0 mm 0 W/m2
03:40 1.3 °C 0.7 °C 1016.3 hPa Calm     96% 0.0 mm 0 W/m2
03:45 1.3 °C 0.7 °C 1016.3 hPa Calm     96% 0.0 mm 0 W/m2
03:50 1.3 °C 0.7 °C 1016.3 hPa Calm     96% 0.0 mm 0 W/m2
03:55 1.2 °C 0.6 °C 1016.3 hPa Calm     96% 0.0 mm 0 W/m2
04:00 1.2 °C 0.6 °C 1016.3 hPa Calm     96% 0.0 mm 0 W/m2
04:05 1.2 °C 0.6 °C 1016.3 hPa Calm     96% 0.0 mm 0 W/m2
04:10 1.2 °C 0.6 °C 1015.9 hPa Calm     96% 0.0 mm 0 W/m2
04:15 1.3 °C 0.7 °C 1015.9 hPa Calm     96% 0.0 mm 0 W/m2
04:20 1.3 °C 0.7 °C 1015.9 hPa Calm     96% 0.0 mm 0 W/m2
04:25 1.3 °C 0.7 °C 1015.6 hPa Calm     96% 0.0 mm 0 W/m2
04:30 1.3 °C 0.7 °C 1015.6 hPa Calm     96% 0.0 mm 0 W/m2
04:35 1.3 °C 0.7 °C 1015.6 hPa Calm     96% 0.0 mm 0 W/m2
04:40 1.3 °C 0.7 °C 1015.6 hPa Calm     96% 0.0 mm 0 W/m2
04:45 1.4 °C 0.8 °C 1015.6 hPa Calm     96% 0.0 mm 0 W/m2
04:50 1.5 °C 0.9 °C 1015.2 hPa Calm     96% 0.0 mm 0 W/m2
04:55 1.6 °C 1 °C 1015.2 hPa NE 1.4 km/h 3.2 km/h 96% 0.0 mm 0 W/m2
05:00 1.6 °C 1 °C 1015.2 hPa Calm     96% 0.0 mm 0 W/m2
05:05 1.6 °C 1 °C 1015.2 hPa Calm   3.2 km/h 96% 0.0 mm 0 W/m2
05:11 1.4 °C 0.8 °C 1014.9 hPa Calm     96% 0.0 mm 0 W/m2
05:16 1.4 °C 0.8 °C 1014.9 hPa Calm     96% 0.0 mm 0 W/m2
05:21 1.3 °C 0.7 °C 1014.9 hPa Calm     96% 0.0 mm 0 W/m2
05:26 1.3 °C 0.7 °C 1014.9 hPa Calm     96% 0.0 mm 0 W/m2
05:31 1.3 °C 0.7 °C 1014.9 hPa Calm     96% 0.0 mm 0 W/m2
05:36 1.2 °C 0.6 °C 1014.9 hPa Calm     96% 0.0 mm 0 W/m2
05:41 1.2 °C 0.6 °C 1014.9 hPa Calm     96% 0.0 mm 0 W/m2
05:46 1.2 °C 0.6 °C 1014.9 hPa Calm     96% 0.0 mm 0 W/m2
05:51 1.1 °C 0.5 °C 1014.9 hPa Calm     96% 0.0 mm 0 W/m2
05:56 1.1 °C 0.5 °C 1014.9 hPa Calm     96% 0.0 mm 0 W/m2
06:01 1.1 °C 0.5 °C 1014.9 hPa Calm     96% 0.0 mm 0 W/m2
06:06 1.1 °C 0.5 °C 1014.9 hPa Calm     96% 0.0 mm 0 W/m2
06:11 1.1 °C 0.5 °C 1014.9 hPa Calm     96% 0.0 mm 0 W/m2
06:16 1.1 °C 0.5 °C 1014.9 hPa Calm     96% 0.0 mm 0 W/m2
06:21 1.2 °C 0.6 °C 1014.9 hPa Calm     96% 0.0 mm 0 W/m2
06:26 1.2 °C 0.6 °C 1014.9 hPa Calm     96% 0.0 mm 0 W/m2
06:31 1.3 °C 0.7 °C 1014.6 hPa Calm     96% 0.0 mm 0 W/m2
06:36 1.3 °C 0.7 °C 1014.6 hPa Calm     96% 0.0 mm 0 W/m2
06:41 1.3 °C 0.7 °C 1014.6 hPa Calm     96% 0.0 mm 0 W/m2
06:46 1.2 °C 0.6 °C 1014.6 hPa Calm     96% 0.0 mm 0 W/m2
06:51 1.3 °C 0.7 °C 1014.6 hPa Calm     96% 0.0 mm 0 W/m2
06:56 1.3 °C 0.7 °C 1014.6 hPa Calm     96% 0.0 mm 0 W/m2
07:01 1.2 °C 0.6 °C 1014.6 hPa Calm     96% 0.0 mm 0 W/m2
07:06 1.2 °C 0.6 °C 1014.6 hPa Calm     96% 0.0 mm 0 W/m2
07:11 1.1 °C 0.5 °C 1014.6 hPa Calm     96% 0.0 mm 0 W/m2
07:16 0.9 °C 0.3 °C 1014.2 hPa Calm     96% 0.0 mm 0 W/m2
07:21 0.8 °C 0.2 °C 1014.2 hPa Calm     96% 0.0 mm 0 W/m2
07:26 0.8 °C 0.2 °C 1014.2 hPa Calm     96% 0.0 mm 0 W/m2
07:31 0.7 °C 0.1 °C 1014.2 hPa Calm     96% 0.0 mm 0 W/m2
07:36 0.6 °C 0 °C 1014.2 hPa Calm     96% 0.0 mm 0 W/m2
07:41 0.7 °C 0.1 °C 1014.2 hPa Calm     96% 0.0 mm 0 W/m2
07:46 0.7 °C 0.1 °C 1013.9 hPa Calm     96% 0.0 mm 7 W/m2
07:51 0.7 °C 0.1 °C 1014.2 hPa Calm     96% 0.0 mm 12 W/m2
07:56 0.8 °C 0.2 °C 1013.9 hPa Calm     96% 0.0 mm 18 W/m2
08:01 0.8 °C 0.2 °C 1013.9 hPa Calm     96% 0.0 mm 21 W/m2
08:06 0.8 °C 0.2 °C 1014.2 hPa Calm     96% 0.0 mm 23 W/m2
08:11 0.8 °C 0.2 °C 1014.2 hPa Calm     96% 0.0 mm 28 W/m2
08:16 0.8 °C 0.2 °C 1014.2 hPa Calm     96% 0.0 mm 32 W/m2
08:21 0.9 °C 0.5 °C 1014.2 hPa Calm     97% 0.2 mm 35 W/m2
08:26 0.9 °C 0.5 °C 1014.2 hPa Calm     97% 0.2 mm 40 W/m2
08:31 1.1 °C 0.7 °C 1013.9 hPa Calm     97% 0.2 mm 42 W/m2
08:36 1.2 °C 0.8 °C 1013.9 hPa Calm     97% 0.2 mm 47 W/m2
08:42 1.4 °C 1 °C 1013.9 hPa Calm     97% 0.2 mm 53 W/m2
08:47 1.5 °C 1.1 °C 1013.9 hPa Calm     97% 0.2 mm 53 W/m2
08:52 1.6 °C 1.2 °C 1013.9 hPa Calm     97% 0.2 mm 54 W/m2
08:57 1.8 °C 1.4 °C 1013.9 hPa Calm     97% 0.2 mm 60 W/m2
09:02 1.9 °C 1.5 °C 1013.9 hPa Calm     97% 0.2 mm 62 W/m2
09:07 2.1 °C 1.7 °C 1013.9 hPa Calm     97% 0.2 mm 63 W/m2
09:12 2.2 °C 1.8 °C 1013.5 hPa ENE 3.2 km/h 3.2 km/h 97% 0.2 mm 67 W/m2
09:17 2.3 °C 1.9 °C 1013.5 hPa Calm     97% 0.0 mm 83 W/m2
09:22 2.4 °C 2 °C 1013.5 hPa Calm     97% 0.0 mm 84 W/m2
09:27 2.4 °C 2 °C 1013.5 hPa Calm     97% 0.0 mm 118 W/m2
09:32 2.6 °C 2.2 °C 1013.5 hPa Calm   1.6 km/h 97% 0.0 mm 76 W/m2
09:37 2.7 °C 2.3 °C 1013.5 hPa ENE 1.4 km/h 3.2 km/h 97% 0.0 mm 125 W/m2
09:42 2.7 °C 2.3 °C 1013.5 hPa Calm     97% 0.0 mm 134 W/m2
09:47 2.8 °C 2.4 °C 1013.2 hPa Calm     97% 0.0 mm 141 W/m2
09:52 3 °C 2.6 °C 1013.2 hPa ENE 1.4 km/h 3.2 km/h 97% 0.0 mm 162 W/m2
09:57 3.2 °C 2.8 °C 1013.2 hPa East 3.2 km/h 6.4 km/h 97% 0.0 mm 197 W/m2
10:02 3.3 °C 2.9 °C 1013.2 hPa ENE 1.4 km/h 3.2 km/h 97% 0.0 mm 220 W/m2
10:07 3.4 °C 3 °C 1013.2 hPa ENE 3.2 km/h 4.8 km/h 97% 0.0 mm 123 W/m2
10:12 3.4 °C 3 °C 1013.2 hPa ENE 1.4 km/h 3.2 km/h 97% 0.0 mm 165 W/m2
10:17 3.5 °C 3.1 °C 1013.2 hPa NE 1.4 km/h 4.8 km/h 97% 0.0 mm 141 W/m2
10:22 3.4 °C 3 °C 1013.2 hPa ENE 1.4 km/h 4.8 km/h 97% 0.0 mm 137 W/m2
10:27 3.6 °C 3.2 °C 1012.9 hPa Calm   3.2 km/h 97% 0.0 mm 218 W/m2
10:32 3.7 °C 3.3 °C 1013.2 hPa Calm   3.2 km/h 97% 0.0 mm 158 W/m2
10:37 3.8 °C 3.4 °C 1012.9 hPa East 3.2 km/h 4.8 km/h 97% 0.0 mm 211 W/m2
10:42 4 °C 3.6 °C 1012.9 hPa ENE 1.4 km/h 4.8 km/h 97% 0.0 mm 243 W/m2
10:47 4.3 °C 3.9 °C 1012.9 hPa Calm   4.8 km/h 97% 0.0 mm 186 W/m2
10:52 4.5 °C 4.1 °C 1012.9 hPa Calm   3.2 km/h 97% 0.0 mm 176 W/m2
10:57 4.7 °C 4.1 °C 1012.9 hPa ENE 3.2 km/h 4.8 km/h 96% 0.0 mm 183 W/m2
11:02 4.9 °C 4.3 °C 1012.5 hPa SE 3.2 km/h 3.2 km/h 96% 0.0 mm 181 W/m2
11:07 5.2 °C 4.5 °C 1012.5 hPa Calm     95% 0.0 mm 176 W/m2
11:12 5.4 °C 4.5 °C 1012.5 hPa East 1.4 km/h 4.8 km/h 94% 0.0 mm 186 W/m2
11:17 5.7 °C 4.7 °C 1012.5 hPa ENE 1.4 km/h 1.6 km/h 93% 0.0 mm 178 W/m2
Juneau County Weather
Compliments of Weather Underground - 4 mb